Time;durP1;ratioP1;P1;durP2;ratioP2;P2;SDS_P1;SDS_P2;PMS_P1;PMS_P2;Temp;Humidity;BMP_temperature;BMP_pressure;BME280_temperature;BME280_humidity;BME280_pressure;Samples;Min_cycle;Max_cycle;Signal;HPM_P1;HPM_P2
2023/09/10 00:00:17;;;;;;;13.90;9.60;;;;;;;;;;5049290;28;20048;-46
2023/09/10 00:02:42;;;;;;;18.10;10.97;;;;;;;;;;5056237;28;20032;-45
2023/09/10 00:05:08;;;;;;;15.90;10.50;;;;;;;;;;5058991;28;20275;-46
2023/09/10 00:07:34;;;;;;;15.10;9.30;;;;;;;;;;5053452;28;20032;-45
2023/09/10 00:09:59;;;;;;;15.70;10.73;;;;;;;;;;5059884;28;20031;-46
2023/09/10 00:12:24;;;;;;;16.20;9.97;;;;;;;;;;5055348;28;20028;-46
2023/09/10 00:14:49;;;;;;;16.23;10.32;;;;;;;;;;5055788;28;20938;-46
2023/09/10 00:17:15;;;;;;;15.80;10.33;;;;;;;;;;5056669;28;20479;-46
2023/09/10 00:19:40;;;;;;;17.57;10.40;;;;;;;;;;5055217;28;20021;-46
2023/09/10 00:22:05;;;;;;;16.07;9.90;;;;;;;;;;5056858;28;20366;-45
2023/09/10 00:24:30;;;;;;;14.07;10.97;;;;;;;;;;5055645;28;20021;-45
2023/09/10 00:26:56;;;;;;;14.00;9.68;;;;;;;;;;5053945;28;20476;-46
2023/09/10 00:29:21;;;;;;;18.60;11.47;;;;;;;;;;5052150;28;20509;-46
2023/09/10 00:31:46;;;;;;;19.83;11.80;;;;;;;;;;5060251;28;20020;-45
2023/09/10 00:34:12;;;;;;;22.40;12.43;;;;;;;;;;5056801;28;20085;-46
2023/09/10 00:36:38;;;;;;;19.70;11.38;;;;;;;;;;5056553;28;20029;-46
2023/09/10 00:39:03;;;;;;;16.93;10.77;;;;;;;;;;5053961;28;20054;-46
2023/09/10 00:41:28;;;;;;;15.38;10.82;;;;;;;;;;5058493;28;20040;-46
2023/09/10 00:43:54;;;;;;;18.50;11.07;;;;;;;;;;5058103;28;20040;-46
2023/09/10 00:46:19;;;;;;;16.73;10.40;;;;;;;;;;5059592;28;20037;-46
2023/09/10 00:48:44;;;;;;;14.10;9.68;;;;;;;;;;5058399;28;20326;-45
2023/09/10 00:51:10;;;;;;;21.95;11.25;;;;;;;;;;5054915;28;20058;-46
2023/09/10 00:53:36;;;;;;;17.77;10.75;;;;;;;;;;5060553;28;20491;-45
2023/09/10 00:56:02;;;;;;;16.98;10.98;;;;;;;;;;5061808;28;20036;-45
2023/09/10 00:58:27;;;;;;;15.52;10.65;;;;;;;;;;5062082;28;20021;-45
2023/09/10 01:00:53;;;;;;;9.90;6.68;;;;;;;;;;5059838;28;20037;-46
2023/09/10 01:03:19;;;;;;;16.60;9.95;;;;;;;;;;5064587;28;20035;-45
2023/09/10 01:05:44;;;;;;;18.05;10.73;;;;;;;;;;5054736;28;20133;-45
2023/09/10 01:08:10;;;;;;;14.30;10.05;;;;;;;;;;5052427;28;20474;-46
2023/09/10 01:10:46;;;;;;;18.07;11.13;;;;;;;;;;5058698;28;20440;-45
2023/09/10 01:13:15;;;;;;;18.75;10.40;;;;;;;;;;5056330;28;20281;-46
2023/09/10 01:15:48;;;;;;;17.15;10.85;;;;;;;;;;5053991;28;20486;-46
2023/09/10 01:18:42;;;;;;;15.95;10.15;;;;;;;;;;5057959;28;20063;-46
2023/09/10 01:21:13;;;;;;;15.73;10.77;;;;;;;;;;5053904;28;20031;-45
2023/09/10 01:23:48;;;;;;;13.68;9.85;;;;;;;;;;5048457;28;20035;-46
2023/09/10 01:26:13;;;;;;;15.15;9.60;;;;;;;;;;5055768;28;20051;-46
2023/09/10 01:28:38;;;;;;;14.87;9.30;;;;;;;;;;5054823;28;20499;-46
2023/09/10 01:31:04;;;;;;;14.50;9.20;;;;;;;;;;5057733;28;20110;-46
2023/09/10 01:33:31;;;;;;;16.33;10.67;;;;;;;;;;5053406;28;21528;-46
2023/09/10 01:35:57;;;;;;;16.05;9.82;;;;;;;;;;5054529;28;20032;-46
2023/09/10 01:38:51;;;;;;;14.73;10.20;;;;;;;;;;5046803;28;20035;-45
2023/09/10 01:41:17;;;;;;;16.85;10.25;;;;;;;;;;5038734;28;20052;-49
2023/09/10 01:43:43;;;;;;;19.70;10.27;;;;;;;;;;5057031;28;20033;-45
2023/09/10 01:46:09;;;;;;;15.38;10.90;;;;;;;;;;5053509;28;20114;-45
2023/09/10 01:48:34;;;;;;;17.50;11.07;;;;;;;;;;5052998;28;20070;-45
2023/09/10 01:51:00;;;;;;;15.48;11.00;;;;;;;;;;5053947;28;20107;-46
2023/09/10 01:53:25;;;;;;;16.70;11.98;;;;;;;;;;5050863;28;20482;-46
2023/09/10 01:55:50;;;;;;;17.45;12.15;;;;;;;;;;5055620;28;20459;-46
2023/09/10 01:58:16;;;;;;;21.77;12.27;;;;;;;;;;5058025;28;20037;-46
2023/09/10 02:00:41;;;;;;;20.60;12.35;;;;;;;;;;5056640;28;20501;-45
2023/09/10 02:03:07;;;;;;;19.35;11.35;;;;;;;;;;5057568;28;20030;-46
2023/09/10 02:05:32;;;;;;;17.55;12.05;;;;;;;;;;5055116;28;20040;-45
2023/09/10 02:07:57;;;;;;;19.13;12.47;;;;;;;;;;5051745;28;20081;-46
2023/09/10 02:10:23;;;;;;;16.63;11.83;;;;;;;;;;5056205;28;20272;-46
2023/09/10 02:12:48;;;;;;;16.65;11.45;;;;;;;;;;5052869;28;20308;-46
2023/09/10 02:15:13;;;;;;;20.42;11.45;;;;;;;;;;5051853;28;20113;-45
2023/09/10 02:17:39;;;;;;;15.30;11.60;;;;;;;;;;5050854;28;20024;-45
2023/09/10 02:20:09;;;;;;;14.57;10.67;;;;;;;;;;5055810;28;20286;-45
2023/09/10 02:22:34;;;;;;;17.13;10.73;;;;;;;;;;5046942;28;20044;-46
2023/09/10 02:25:00;;;;;;;18.50;11.77;;;;;;;;;;5052588;28;20028;-45
2023/09/10 02:27:25;;;;;;;13.93;11.15;;;;;;;;;;5052094;28;20024;-46
2023/09/10 02:29:51;;;;;;;16.77;11.00;;;;;;;;;;5055892;28;20107;-46
2023/09/10 02:32:16;;;;;;;16.93;10.73;;;;;;;;;;5053980;28;21243;-45
2023/09/10 02:34:41;;;;;;;15.57;11.33;;;;;;;;;;5052080;28;20045;-45
2023/09/10 02:37:06;;;;;;;19.07;11.10;;;;;;;;;;5049269;28;20759;-45
2023/09/10 02:39:32;;;;;;;18.50;11.40;;;;;;;;;;5052238;28;20279;-46
2023/09/10 02:41:57;;;;;;;15.50;11.67;;;;;;;;;;5049776;28;20282;-46
2023/09/10 02:44:22;;;;;;;18.33;11.90;;;;;;;;;;5051946;28;20284;-46
2023/09/10 02:46:47;;;;;;;16.70;11.20;;;;;;;;;;5051946;28;21347;-46
2023/09/10 02:49:13;;;;;;;15.83;11.20;;;;;;;;;;5053790;28;20039;-45
2023/09/10 02:51:38;;;;;;;16.43;10.83;;;;;;;;;;5052322;28;20112;-45
2023/09/10 02:54:03;;;;;;;17.13;11.47;;;;;;;;;;5058303;28;20765;-46
2023/09/10 02:56:28;;;;;;;16.37;11.83;;;;;;;;;;5059410;28;20024;-46
2023/09/10 02:58:54;;;;;;;18.47;11.20;;;;;;;;;;5058016;28;20286;-46
2023/09/10 03:01:19;;;;;;;16.70;11.00;;;;;;;;;;5054436;28;20293;-45
2023/09/10 03:03:44;;;;;;;17.50;11.10;;;;;;;;;;5056515;28;20107;-46
2023/09/10 03:06:11;;;;;;;14.75;10.30;;;;;;;;;;5054440;28;20441;-46
2023/09/10 03:08:36;;;;;;;16.05;10.95;;;;;;;;;;5056945;28;20116;-45
2023/09/10 03:11:02;;;;;;;18.67;11.60;;;;;;;;;;5060195;28;20116;-45
2023/09/10 03:13:27;;;;;;;16.00;10.90;;;;;;;;;;5056866;28;20124;-46
2023/09/10 03:15:53;;;;;;;16.47;11.37;;;;;;;;;;5055968;28;20115;-45
2023/09/10 03:18:18;;;;;;;8.63;7.30;;;;;;;;;;5057088;28;20032;-45
2023/09/10 03:20:43;;;;;;;16.10;11.43;;;;;;;;;;5051011;28;20036;-46
2023/09/10 03:23:09;;;;;;;17.03;11.73;;;;;;;;;;5053447;28;20024;-45
2023/09/10 03:25:40;;;;;;;16.83;11.35;;;;;;;;;;5060593;28;20029;-46
2023/09/10 03:28:06;;;;;;;19.17;12.38;;;;;;;;;;5063706;28;20017;-46
2023/09/10 03:30:31;;;;;;;14.90;11.73;;;;;;;;;;5059284;28;20513;-46
2023/09/10 03:32:57;;;;;;;17.02;11.20;;;;;;;;;;5054717;28;20032;-45
2023/09/10 03:35:22;;;;;;;103.75;57.60;;;;;;;;;;5057834;28;20040;-45
2023/09/10 03:37:47;;;;;;;56.77;36.10;;;;;;;;;;5055097;28;20048;-45
2023/09/10 03:40:12;;;;;;;21.20;14.40;;;;;;;;;;5057537;28;20037;-45
2023/09/10 03:42:38;;;;;;;18.27;10.87;;;;;;;;;;5058794;28;20441;-46
2023/09/10 03:45:03;;;;;;;15.73;10.40;;;;;;;;;;5057570;28;20028;-46
2023/09/10 03:47:29;;;;;;;16.70;11.35;;;;;;;;;;5061308;28;20052;-45
2023/09/10 03:49:55;;;;;;;18.45;11.68;;;;;;;;;;5057661;28;20024;-46
2023/09/10 03:52:21;;;;;;;18.65;11.35;;;;;;;;;;5052930;28;20499;-46
2023/09/10 03:54:46;;;;;;;17.48;11.20;;;;;;;;;;5061181;28;20020;-46
2023/09/10 03:57:11;;;;;;;16.70;11.88;;;;;;;;;;5054246;28;20070;-46
2023/09/10 03:59:37;;;;;;;23.27;15.07;;;;;;;;;;5055001;28;20082;-45
2023/09/10 04:02:02;;;;;;;24.08;16.15;;;;;;;;;;5056660;28;20025;-46
2023/09/10 04:04:28;;;;;;;20.90;13.88;;;;;;;;;;5060611;28;20037;-46
2023/09/10 04:06:54;;;;;;;17.67;12.13;;;;;;;;;;5049638;28;20047;-45
2023/09/10 04:09:19;;;;;;;17.77;11.50;;;;;;;;;;5059130;28;20028;-45
2023/09/10 04:11:44;;;;;;;20.00;11.73;;;;;;;;;;5053012;28;20301;-46
2023/09/10 04:14:10;;;;;;;17.70;10.77;;;;;;;;;;5054893;28;20290;-45
2023/09/10 04:16:35;;;;;;;19.70;12.35;;;;;;;;;;5052935;28;20033;-46
2023/09/10 04:19:00;;;;;;;21.53;11.50;;;;;;;;;;5057084;28;20066;-45
2023/09/10 04:21:25;;;;;;;9.37;6.17;;;;;;;;;;5052713;28;20040;-45
2023/09/10 04:23:51;;;;;;;17.47;10.23;;;;;;;;;;5058619;28;20789;-46
2023/09/10 04:26:16;;;;;;;15.93;11.27;;;;;;;;;;5056641;28;20067;-46
2023/09/10 04:28:41;;;;;;;16.50;11.45;;;;;;;;;;5056564;28;20016;-45
2023/09/10 04:31:13;;;;;;;21.10;12.57;;;;;;;;;;5055745;28;20043;-46
2023/09/10 04:33:38;;;;;;;17.42;11.35;;;;;;;;;;5052208;28;20017;-46
2023/09/10 04:36:04;;;;;;;17.00;11.17;;;;;;;;;;5053114;28;20083;-45
2023/09/10 04:38:29;;;;;;;16.20;11.55;;;;;;;;;;5054347;28;20040;-46
2023/09/10 04:40:55;;;;;;;19.17;11.70;;;;;;;;;;5053681;28;20020;-45
2023/09/10 04:43:20;;;;;;;17.42;10.23;;;;;;;;;;5053198;28;20089;-45
2023/09/10 04:45:46;;;;;;;15.40;10.10;;;;;;;;;;5061458;28;20029;-46
2023/09/10 04:48:12;;;;;;;13.40;10.15;;;;;;;;;;5055915;28;20025;-45
2023/09/10 04:50:38;;;;;;;15.65;9.88;;;;;;;;;;5060429;28;20052;-46
2023/09/10 04:53:03;;;;;;;15.50;9.55;;;;;;;;;;5051280;28;20218;-46
2023/09/10 04:55:28;;;;;;;17.23;10.18;;;;;;;;;;5050171;28;20032;-45
2023/09/10 04:57:54;;;;;;;15.87;10.37;;;;;;;;;;5057246;28;20106;-45
2023/09/10 05:00:19;;;;;;;14.27;9.70;;;;;;;;;;5056665;28;20032;-46
2023/09/10 05:02:44;;;;;;;14.53;9.20;;;;;;;;;;5054111;28;20036;-45
2023/09/10 05:05:09;;;;;;;13.00;8.83;;;;;;;;;;5053832;28;20375;-46
2023/09/10 05:07:35;;;;;;;15.53;11.10;;;;;;;;;;5051953;28;20506;-46
2023/09/10 05:10:00;;;;;;;13.10;8.97;;;;;;;;;;5058098;28;20016;-46
2023/09/10 05:12:25;;;;;;;15.07;9.13;;;;;;;;;;5060952;28;20074;-46
2023/09/10 05:14:50;;;;;;;14.60;10.45;;;;;;;;;;5058261;28;20278;-45
2023/09/10 05:17:16;;;;;;;15.70;10.27;;;;;;;;;;5060744;28;20527;-46
2023/09/10 05:19:43;;;;;;;16.23;10.63;;;;;;;;;;5058120;28;20036;-46
2023/09/10 05:22:08;;;;;;;11.27;8.80;;;;;;;;;;5060810;28;20078;-46
2023/09/10 05:24:33;;;;;;;18.20;10.30;;;;;;;;;;5057779;28;20077;-46
2023/09/10 05:26:58;;;;;;;14.50;9.73;;;;;;;;;;5062681;28;20278;-46
2023/09/10 05:29:26;;;;;;;14.93;10.03;;;;;;;;;;5063114;28;20614;-46
2023/09/10 05:31:51;;;;;;;12.43;8.93;;;;;;;;;;5060710;28;20024;-46
2023/09/10 05:34:17;;;;;;;15.52;11.30;;;;;;;;;;5059276;28;20089;-46
2023/09/10 05:36:42;;;;;;;11.15;7.78;;;;;;;;;;5057224;28;20033;-46
2023/09/10 05:39:07;;;;;;;11.20;8.30;;;;;;;;;;5054579;28;20028;-46
2023/09/10 05:41:33;;;;;;;12.43;7.93;;;;;;;;;;5057317;28;20036;-46
2023/09/10 05:43:58;;;;;;;9.73;7.35;;;;;;;;;;5059027;28;20286;-46
2023/09/10 05:46:23;;;;;;;9.37;7.17;;;;;;;;;;5053102;28;20016;-45
2023/09/10 05:48:49;;;;;;;9.82;7.22;;;;;;;;;;5059246;28;20268;-46
2023/09/10 05:51:14;;;;;;;11.37;7.50;;;;;;;;;;5053315;28;20036;-46
2023/09/10 05:53:42;;;;;;;10.80;7.70;;;;;;;;;;5055733;28;20063;-46
2023/09/10 05:56:07;;;;;;;12.70;8.05;;;;;;;;;;5061679;28;20306;-46
2023/09/10 05:58:32;;;;;;;10.93;8.10;;;;;;;;;;5057900;28;20067;-46
2023/09/10 06:00:58;;;;;;;9.27;7.00;;;;;;;;;;5059567;28;20099;-46
2023/09/10 06:03:23;;;;;;;11.27;8.50;;;;;;;;;;5053139;28;20035;-46
2023/09/10 06:05:49;;;;;;;12.27;8.30;;;;;;;;;;5052308;28;20544;-46
2023/09/10 06:08:14;;;;;;;12.02;8.35;;;;;;;;;;5055046;28;20062;-46
2023/09/10 06:10:39;;;;;;;11.73;8.73;;;;;;;;;;5057551;28;20060;-46
2023/09/10 06:13:04;;;;;;;10.77;7.80;;;;;;;;;;5054627;28;20275;-46
2023/09/10 06:15:30;;;;;;;15.30;8.20;;;;;;;;;;5057189;28;20033;-46
2023/09/10 06:17:55;;;;;;;18.33;9.32;;;;;;;;;;5052564;28;20032;-46
2023/09/10 06:20:20;;;;;;;14.40;8.70;;;;;;;;;;5056333;28;20052;-46
2023/09/10 06:22:45;;;;;;;17.50;8.80;;;;;;;;;;5055329;28;20764;-46
2023/09/10 06:25:11;;;;;;;15.20;9.37;;;;;;;;;;5056381;28;20035;-46
2023/09/10 06:27:36;;;;;;;19.43;9.00;;;;;;;;;;5062264;28;20126;-46
2023/09/10 06:30:01;;;;;;;13.03;8.30;;;;;;;;;;5058825;28;20041;-46
2023/09/10 06:32:27;;;;;;;12.68;8.35;;;;;;;;;;5061014;28;20389;-46
2023/09/10 06:34:52;;;;;;;11.67;8.10;;;;;;;;;;5060223;28;20047;-46
2023/09/10 06:37:17;;;;;;;12.30;9.00;;;;;;;;;;5061465;28;20356;-46
2023/09/10 06:39:42;;;;;;;11.77;8.70;;;;;;;;;;5060381;28;20043;-46
2023/09/10 06:42:10;;;;;;;13.07;9.15;;;;;;;;;;5057829;28;20099;-46
2023/09/10 06:44:38;;;;;;;13.65;9.85;;;;;;;;;;5058220;28;20028;-46
2023/09/10 06:47:03;;;;;;;13.20;9.15;;;;;;;;;;5062373;28;20036;-46
2023/09/10 06:49:28;;;;;;;15.73;9.40;;;;;;;;;;5063583;28;20033;-45
2023/09/10 06:51:53;;;;;;;13.33;8.77;;;;;;;;;;5051292;28;20294;-46
2023/09/10 06:54:19;;;;;;;13.68;8.73;;;;;;;;;;5056319;28;21986;-46
2023/09/10 06:56:44;;;;;;;11.57;8.50;;;;;;;;;;5062765;28;20016;-45
2023/09/10 06:59:09;;;;;;;14.40;9.97;;;;;;;;;;5061213;28;21341;-45
2023/09/10 07:01:38;;;;;;;12.33;9.80;;;;;;;;;;5061745;28;20036;-46
2023/09/10 07:04:15;;;;;;;14.98;10.82;;;;;;;;;;5058456;28;20033;-46
2023/09/10 07:06:40;;;;;;;22.08;13.40;;;;;;;;;;5059881;28;20033;-46
2023/09/10 07:09:05;;;;;;;17.70;10.73;;;;;;;;;;5065264;28;20114;-46
2023/09/10 07:11:31;;;;;;;12.65;9.30;;;;;;;;;;5057838;28;20479;-45
2023/09/10 07:13:56;;;;;;;19.47;8.83;;;;;;;;;;5056579;28;20024;-46
2023/09/10 07:16:23;;;;;;;12.35;9.57;;;;;;;;;;5053595;28;20278;-46
2023/09/10 07:18:48;;;;;;;11.75;8.40;;;;;;;;;;5045075;28;20526;-46
2023/09/10 07:21:13;;;;;;;12.97;9.10;;;;;;;;;;5051974;28;20111;-46
2023/09/10 07:23:38;;;;;;;15.07;9.87;;;;;;;;;;5053267;28;20024;-46
2023/09/10 07:26:04;;;;;;;14.97;10.37;;;;;;;;;;5058208;28;20021;-46
2023/09/10 07:28:29;;;;;;;16.43;11.63;;;;;;;;;;5053532;28;20032;-45
2023/09/10 07:30:54;;;;;;;19.40;11.73;;;;;;;;;;5057762;28;20414;-46
2023/09/10 07:33:19;;;;;;;26.23;17.63;;;;;;;;;;5055668;28;20033;-46
2023/09/10 07:35:45;;;;;;;20.43;13.93;;;;;;;;;;5057445;28;20029;-46
2023/09/10 07:38:10;;;;;;;18.10;12.23;;;;;;;;;;5053724;28;20291;-46
2023/09/10 07:40:35;;;;;;;19.00;11.65;;;;;;;;;;5052218;28;20033;-46
2023/09/10 07:43:02;;;;;;;16.27;11.53;;;;;;;;;;5060204;28;20399;-46
2023/09/10 07:45:27;;;;;;;15.82;11.18;;;;;;;;;;5061603;28;20294;-46
2023/09/10 07:47:53;;;;;;;15.90;10.73;;;;;;;;;;5060630;28;20024;-46
2023/09/10 07:50:18;;;;;;;15.85;10.57;;;;;;;;;;5060013;28;20044;-46
2023/09/10 07:52:43;;;;;;;16.77;11.07;;;;;;;;;;5055688;28;20047;-46
2023/09/10 07:55:09;;;;;;;16.20;11.93;;;;;;;;;;5050891;28;20024;-46
2023/09/10 07:57:34;;;;;;;18.23;12.45;;;;;;;;;;5061495;28;20306;-46
2023/09/10 07:59:59;;;;;;;18.73;12.57;;;;;;;;;;5059042;28;20567;-45
2023/09/10 08:02:26;;;;;;;15.77;11.17;;;;;;;;;;5054995;28;20043;-46
2023/09/10 08:04:54;;;;;;;22.05;12.32;;;;;;;;;;5055853;28;20037;-46
2023/09/10 08:07:19;;;;;;;17.65;11.63;;;;;;;;;;5056343;28;20574;-46
2023/09/10 08:09:44;;;;;;;29.10;15.77;;;;;;;;;;5058268;28;20032;-46
2023/09/10 08:12:10;;;;;;;18.33;12.80;;;;;;;;;;5056334;28;20279;-46
2023/09/10 08:14:37;;;;;;;29.30;11.57;;;;;;;;;;5056549;28;20387;-46
2023/09/10 08:17:03;;;;;;;18.08;12.18;;;;;;;;;;5057559;28;20620;-46
2023/09/10 08:19:28;;;;;;;10.23;7.28;;;;;;;;;;5060649;28;20033;-45
2023/09/10 08:21:53;;;;;;;14.83;10.57;;;;;;;;;;5057689;28;20029;-46
2023/09/10 08:24:21;;;;;;;13.77;10.27;;;;;;;;;;5055757;28;20052;-46
2023/09/10 08:26:46;;;;;;;18.25;11.48;;;;;;;;;;5058319;28;20287;-46
2023/09/10 08:29:11;;;;;;;16.33;11.27;;;;;;;;;;5057882;28;20025;-46
2023/09/10 08:31:37;;;;;;;15.60;10.37;;;;;;;;;;5060997;28;20065;-53
2023/09/10 08:34:02;;;;;;;14.13;9.70;;;;;;;;;;5054089;28;20272;-45
2023/09/10 08:36:27;;;;;;;17.40;11.23;;;;;;;;;;5054153;28;20017;-45
2023/09/10 08:38:54;;;;;;;18.00;11.77;;;;;;;;;;5058158;28;20355;-46
2023/09/10 08:41:22;;;;;;;17.88;11.95;;;;;;;;;;5060761;28;20290;-46
2023/09/10 08:44:01;;;;;;;18.60;11.43;;;;;;;;;;5056768;28;20029;-46
2023/09/10 08:46:30;;;;;;;16.27;10.77;;;;;;;;;;5058887;28;20052;-46
2023/09/10 08:48:59;;;;;;;12.45;6.93;;;;;;;;;;5055417;28;20028;-46
2023/09/10 08:51:24;;;;;;;14.20;10.60;;;;;;;;;;5055899;28;20427;-46
2023/09/10 08:53:51;;;;;;;20.00;11.65;;;;;;;;;;5053560;28;20523;-46
2023/09/10 08:56:17;;;;;;;17.17;11.32;;;;;;;;;;5055586;28;20062;-46
2023/09/10 08:58:43;;;;;;;16.45;11.98;;;;;;;;;;5059720;28;20048;-46
2023/09/10 09:01:09;;;;;;;17.38;10.60;;;;;;;;;;5058469;28;20050;-46
2023/09/10 09:03:35;;;;;;;10.70;7.13;;;;;;;;;;5058364;28;20627;-46
2023/09/10 09:06:04;;;;;;;15.23;11.48;;;;;;;;;;5053133;28;20059;-46
2023/09/10 09:08:30;;;;;;;15.30;10.68;;;;;;;;;;5056742;28;20490;-46
2023/09/10 09:10:56;;;;;;;13.75;9.73;;;;;;;;;;5058568;28;20035;-46
2023/09/10 09:13:22;;;;;;;13.52;9.48;;;;;;;;;;5059147;28;20024;-46
2023/09/10 09:15:47;;;;;;;14.52;10.50;;;;;;;;;;5061435;28;20025;-46
2023/09/10 09:18:14;;;;;;;15.00;10.10;;;;;;;;;;5059993;28;20063;-46
2023/09/10 09:20:42;;;;;;;12.95;9.85;;;;;;;;;;5053853;28;20124;-46
2023/09/10 09:23:27;;;;;;;13.65;10.13;;;;;;;;;;5058209;28;20031;-46
2023/09/10 09:25:52;;;;;;;14.80;9.15;;;;;;;;;;5058199;28;20063;-46
2023/09/10 09:28:18;;;;;;;15.38;10.50;;;;;;;;;;5060016;28;20480;-45
2023/09/10 09:30:44;;;;;;;14.50;9.55;;;;;;;;;;5057547;28;20035;-46
2023/09/10 09:33:09;;;;;;;13.70;8.55;;;;;;;;;;5058899;28;20419;-46
2023/09/10 09:35:34;;;;;;;11.38;8.63;;;;;;;;;;5058442;28;20032;-46
2023/09/10 09:38:09;;;;;;;14.10;8.60;;;;;;;;;;5056501;28;20043;-46
2023/09/10 09:40:37;;;;;;;13.40;9.85;;;;;;;;;;5058775;28;20121;-46
2023/09/10 09:43:06;;;;;;;11.68;8.20;;;;;;;;;;5053728;28;20034;-46
2023/09/10 09:45:31;;;;;;;10.27;7.28;;;;;;;;;;5053894;28;20460;-46
2023/09/10 09:47:57;;;;;;;11.27;7.50;;;;;;;;;;5051538;28;20483;-46
2023/09/10 09:50:24;;;;;;;10.68;7.03;;;;;;;;;;5057773;28;20470;-46
2023/09/10 09:52:54;;;;;;;11.02;7.30;;;;;;;;;;5052765;28;20028;-46
2023/09/10 09:55:19;;;;;;;9.07;7.15;;;;;;;;;;5058102;28;20040;-46
2023/09/10 09:57:48;;;;;;;14.75;7.60;;;;;;;;;;5057461;28;20019;-46
2023/09/10 10:00:14;;;;;;;9.10;6.35;;;;;;;;;;5054534;28;20028;-46
2023/09/10 10:02:39;;;;;;;11.90;6.25;;;;;;;;;;5055035;28;20546;-46
2023/09/10 10:05:04;;;;;;;11.50;6.50;;;;;;;;;;5053774;28;20031;-46
2023/09/10 10:07:30;;;;;;;11.70;7.60;;;;;;;;;;5057222;28;20039;-46
2023/09/10 10:09:57;;;;;;;11.35;7.20;;;;;;;;;;5057734;28;20043;-46
2023/09/10 10:12:23;;;;;;;8.15;5.68;;;;;;;;;;5058615;28;20021;-46
2023/09/10 10:14:48;;;;;;;9.65;6.18;;;;;;;;;;5055137;28;20020;-46
2023/09/10 10:17:15;;;;;;;8.70;5.70;;;;;;;;;;5058740;28;20025;-46
2023/09/10 10:19:40;;;;;;;10.90;6.90;;;;;;;;;;5056404;28;20431;-46
2023/09/10 10:22:06;;;;;;;8.18;5.80;;;;;;;;;;5055356;28;20120;-46
2023/09/10 10:24:33;;;;;;;10.90;6.03;;;;;;;;;;5061728;28;20025;-46
2023/09/10 10:27:00;;;;;;;7.88;5.20;;;;;;;;;;5055717;28;20490;-46
2023/09/10 10:29:25;;;;;;;9.35;5.78;;;;;;;;;;5055921;28;20028;-45
2023/09/10 10:32:07;;;;;;;14.88;5.90;;;;;;;;;;5057318;28;20074;-46
2023/09/10 10:34:32;;;;;;;;;;;;;;;;;;5056919;28;20029;-46
2023/09/10 10:37:16;;;;;;;11.98;5.75;;;;;;;;;;5054894;28;19915;-46
2023/09/10 10:40:05;;;;;;;5.40;4.13;;;;;;;;;;5056958;28;20026;-46
2023/09/10 10:42:52;;;;;;;9.38;5.68;;;;;;;;;;5052619;28;20590;-46
2023/09/10 10:45:18;;;;;;;10.88;4.95;;;;;;;;;;5052388;28;20040;-46
2023/09/10 10:47:44;;;;;;;10.38;6.30;;;;;;;;;;5055128;28;20025;-46
2023/09/10 10:50:10;;;;;;;9.70;5.75;;;;;;;;;;5055888;28;20012;-46
2023/09/10 10:52:38;;;;;;;9.98;5.72;;;;;;;;;;5058983;28;20116;-46
2023/09/10 10:55:04;;;;;;;8.45;5.85;;;;;;;;;;5056031;28;20033;-46
2023/09/10 10:57:30;;;;;;;8.07;5.82;;;;;;;;;;5053969;28;20023;-46
2023/09/10 10:59:55;;;;;;;9.80;5.95;;;;;;;;;;5056385;28;20471;-45
2023/09/10 11:02:22;;;;;;;8.07;5.57;;;;;;;;;;5056762;28;20384;-45
2023/09/10 11:05:13;;;;;;;8.50;5.50;;;;;;;;;;5055708;28;20021;-46
2023/09/10 11:07:38;;;;;;;9.77;6.03;;;;;;;;;;5056969;28;20033;-46
2023/09/10 11:10:23;;;;;;;9.93;5.63;;;;;;;;;;5061047;28;20033;-46
2023/09/10 11:13:04;;;;;;;9.65;5.53;;;;;;;;;;5059419;28;20024;-46
2023/09/10 11:15:29;;;;;;;;;;;;;;;;;;5060950;28;20386;-46
2023/09/10 11:18:15;;;;;;;8.90;4.57;;;;;;;;;;5056296;28;20618;-46
2023/09/10 11:20:50;;;;;;;10.30;4.78;;;;;;;;;;5058668;28;20108;-47
2023/09/10 11:23:15;;;;;;;8.88;5.18;;;;;;;;;;5061757;28;20029;-45
2023/09/10 11:25:41;;;;;;;7.90;5.07;;;;;;;;;;5057988;28;20032;-46
2023/09/10 11:28:26;;;;;;;7.88;4.65;;;;;;;;;;5055039;28;20114;-46
2023/09/10 11:30:51;;;;;;;6.82;4.70;;;;;;;;;;5061240;28;20021;-46
2023/09/10 11:33:30;;;;;;;10.37;4.40;;;;;;;;;;5061765;28;20047;-46
2023/09/10 11:35:58;;;;;;;11.68;5.85;;;;;;;;;;5060424;28;20040;-46
2023/09/10 11:38:24;;;;;;;7.22;5.28;;;;;;;;;;5055776;28;20363;-46
2023/09/10 11:40:50;;;;;;;8.63;5.43;;;;;;;;;;5058196;28;20059;-46
2023/09/10 11:43:15;;;;;;;8.30;5.65;;;;;;;;;;5063863;28;20060;-46
2023/09/10 11:45:41;;;;;;;9.60;4.80;;;;;;;;;;5059792;28;20063;-46
2023/09/10 11:48:06;;;;;;;7.18;5.13;;;;;;;;;;5056973;28;20789;-46
2023/09/10 11:50:33;;;;;;;11.30;5.80;;;;;;;;;;5060763;28;20044;-46
2023/09/10 11:52:58;;;;;;;9.07;5.82;;;;;;;;;;5055186;28;20028;-46
2023/09/10 11:55:23;;;;;;;8.52;5.57;;;;;;;;;;5053136;28;20028;-46
2023/09/10 11:57:50;;;;;;;8.45;5.43;;;;;;;;;;5056056;28;20039;-46
2023/09/10 12:00:16;;;;;;;9.93;4.95;;;;;;;;;;5060012;28;20449;-46
2023/09/10 12:02:41;;;;;;;10.50;6.35;;;;;;;;;;5059286;28;20047;-46
2023/09/10 12:05:07;;;;;;;7.53;4.63;;;;;;;;;;5057926;28;20116;-46
2023/09/10 12:07:33;;;;;;;10.80;5.75;;;;;;;;;;5057758;28;20029;-46
2023/09/10 12:09:58;;;;;;;8.90;4.20;;;;;;;;;;5061039;28;20017;-46
2023/09/10 12:12:34;;;;;;;11.97;5.07;;;;;;;;;;5057776;28;20085;-46
2023/09/10 12:14:59;;;;;;;10.60;5.03;;;;;;;;;;5058153;28;20368;-46
2023/09/10 12:17:25;;;;;;;11.15;5.80;;;;;;;;;;5057241;28;20431;-46
2023/09/10 12:19:51;;;;;;;7.70;4.63;;;;;;;;;;5060400;28;20020;-46
2023/09/10 12:22:18;;;;;;;6.95;4.88;;;;;;;;;;5057963;28;20115;-46
2023/09/10 12:24:43;;;;;;;9.48;5.53;;;;;;;;;;5059816;28;20070;-46
2023/09/10 12:27:09;;;;;;;7.20;4.97;;;;;;;;;;5060979;28;20058;-46
2023/09/10 12:29:34;;;;;;;7.65;5.22;;;;;;;;;;5059290;28;20406;-46
2023/09/10 12:32:00;;;;;;;7.50;5.00;;;;;;;;;;5061286;28;20021;-46
2023/09/10 12:34:25;;;;;;;9.27;5.60;;;;;;;;;;5061434;28;20025;-46
2023/09/10 12:36:50;;;;;;;14.00;5.70;;;;;;;;;;5058061;28;20314;-46
2023/09/10 12:39:19;;;;;;;7.32;5.30;;;;;;;;;;5056399;28;20074;-46
2023/09/10 12:42:03;;;;;;;8.63;5.00;;;;;;;;;;5062285;28;20043;-46
2023/09/10 12:44:30;;;;;;;7.28;5.00;;;;;;;;;;5059620;28;20040;-46
2023/09/10 12:46:56;;;;;;;8.20;4.85;;;;;;;;;;5060070;28;20043;-46
2023/09/10 12:49:21;;;;;;;10.07;5.15;;;;;;;;;;5054156;28;20028;-46
2023/09/10 12:51:47;;;;;;;11.18;5.50;;;;;;;;;;5056005;28;20017;-46
2023/09/10 12:54:13;;;;;;;12.18;6.45;;;;;;;;;;5058368;28;20151;-46
2023/09/10 12:56:40;;;;;;;8.63;5.47;;;;;;;;;;5063887;28;20078;-46
2023/09/10 12:59:06;;;;;;;7.40;4.88;;;;;;;;;;5059009;28;20036;-46
2023/09/10 13:01:31;;;;;;;9.30;5.10;;;;;;;;;;5056515;28;20033;-46
2023/09/10 13:03:57;;;;;;;7.53;5.10;;;;;;;;;;5055766;28;20055;-46
2023/09/10 13:06:22;;;;;;;7.03;5.13;;;;;;;;;;5059576;28;20294;-46
2023/09/10 13:08:47;;;;;;;9.07;4.60;;;;;;;;;;5057979;28;20496;-46
2023/09/10 13:11:12;;;;;;;4.67;3.10;;;;;;;;;;5055168;28;20279;-46
2023/09/10 13:13:38;;;;;;;9.10;5.63;;;;;;;;;;5054244;28;20494;-46
2023/09/10 13:16:03;;;;;;;7.45;5.20;;;;;;;;;;5057215;28;20037;-46
2023/09/10 13:18:28;;;;;;;7.90;5.35;;;;;;;;;;5055943;28;20479;-46
2023/09/10 13:20:54;;;;;;;8.57;5.37;;;;;;;;;;5059703;28;20048;-46
2023/09/10 13:23:19;;;;;;;6.63;5.10;;;;;;;;;;5055352;28;20040;-46
2023/09/10 13:25:44;;;;;;;9.27;5.17;;;;;;;;;;5060790;28;20036;-46
2023/09/10 13:28:13;;;;;;;7.53;5.30;;;;;;;;;;5059220;28;20294;-46
2023/09/10 13:30:38;;;;;;;9.90;6.00;;;;;;;;;;5058613;28;20271;-46
2023/09/10 13:33:04;;;;;;;11.13;5.20;;;;;;;;;;5056744;28;20356;-46
2023/09/10 13:35:32;;;;;;;9.73;4.85;;;;;;;;;;5058033;28;20020;-46
2023/09/10 13:37:57;;;;;;;9.43;5.50;;;;;;;;;;5061637;28;20079;-46
2023/09/10 13:40:22;;;;;;;8.27;5.50;;;;;;;;;;5059312;28;20068;-46
2023/09/10 13:42:49;;;;;;;4.90;3.05;;;;;;;;;;5061705;28;20036;-46
2023/09/10 13:45:14;;;;;;;9.27;5.22;;;;;;;;;;5059139;28;20036;-46
2023/09/10 13:47:40;;;;;;;11.30;6.60;;;;;;;;;;5054525;28;20090;-46
2023/09/10 13:50:05;;;;;;;7.70;4.90;;;;;;;;;;5060121;28;20355;-46
2023/09/10 13:52:30;;;;;;;11.00;4.50;;;;;;;;;;5056641;28;20037;-46
2023/09/10 13:54:56;;;;;;;7.53;4.43;;;;;;;;;;5056567;28;20471;-46
2023/09/10 13:57:21;;;;;;;6.43;4.43;;;;;;;;;;5057547;28;20169;-46
2023/09/10 13:59:46;;;;;;;10.27;5.53;;;;;;;;;;5054424;28;22824;-46
2023/09/10 14:02:11;;;;;;;7.00;4.90;;;;;;;;;;5057341;28;20288;-46
2023/09/10 14:04:37;;;;;;;8.43;4.40;;;;;;;;;;5058515;28;20033;-46
2023/09/10 14:07:03;;;;;;;7.00;4.50;;;;;;;;;;5057540;28;20067;-46
2023/09/10 14:09:28;;;;;;;7.10;4.57;;;;;;;;;;5059108;28;20379;-46
2023/09/10 14:11:54;;;;;;;7.87;4.47;;;;;;;;;;5055380;28;20082;-46
2023/09/10 14:14:20;;;;;;;9.70;5.67;;;;;;;;;;5062004;28;20282;-46
2023/09/10 14:16:45;;;;;;;6.80;4.70;;;;;;;;;;5061538;28;20059;-46
2023/09/10 14:19:10;;;;;;;7.93;5.20;;;;;;;;;;5057764;28;20438;-46
2023/09/10 14:21:38;;;;;;;7.50;4.37;;;;;;;;;;5054700;28;21364;-46
2023/09/10 14:24:03;;;;;;;9.00;5.25;;;;;;;;;;5056836;28;21219;-46